Effingham, South Carolina
Current Conditions -  °F | °C
As of 2:53 AM on Wednesday 22 Oct 2014 (Local Time) from KFLO Reporting Station
Broken Clouds Broken Clouds  
Wind Chill: 58°   Ceiling: 7500
Heat Index: 58°   Visibility: 10mi
Dew Point: 40°   Wind: 10mph
Humidity: 51%   Direction: 360°N
Pressure: 29.95"   Gusts: NA
Location:  34.07°N, 79.76°W
Report Text: KFLO 220653Z AUTO 36009KT 10SM BKN075 14/04 A2995 RMK AO2 SLP139 T01440044
Loading
Personal Weather Stations






























Interactive Weather Map
Tropical Storm Tracking
New forecast layout! Learn more

10-Day Weather Forecast

Advertisements
Track Severe Weather on mobile